METAR Rapporter

 

EKOD - Odense/Beldringe, Denmark
Distance from station: NNV 51km
Opdateret: 21/10/2017 11:50
Mest skyet
Mest skyet
 Vind retning SSØ
Vind: SSØ 15 km/h
Temperatur: 13°C
Dugpunkt: 12°C
Fugtighed: 94%
Barometer: 1012 hPa
Clouds: Mest skyet
Visibility: 7 km
Cloud details: Few Clouds 213 m
Delvist skyet 305 m
Mest skyet 518 m
2017/10/21 09:50 EKOD 210950Z 15008KT 7000 FEW007 SCT010 BKN017 13/12 Q1012
EKSB - Sonderborg Airpo, Denmark
Distance from station: V 53km
Opdateret: 21/10/2017 11:50
Mest skyet
Mest skyet
 Vind retning SSØ
Vind: SSØ 15 km/h
Temperatur: 13°C
Dugpunkt: 12°C
Fugtighed: 94%
Barometer: 1011 hPa
Clouds: Mest skyet
Visibility: 8 km
Cloud details: Mest skyet 244 m
Mest skyet 610 m
2017/10/21 09:50 EKSB 210950Z 15008KT 8000 BKN008 BKN020 13/12 Q1011
 
EKSP - Skrydstrup(Dan-A, Denmark
Distance from station: VNV 88km
Opdateret: 21/10/2017 11:50
Mest skyet
Mest skyet
 Vind retning SSØ
Vind: SSØ 19 km/h
Temperatur: 12°C
Dugpunkt: 11°C
Fugtighed: 94%
Barometer: 1011 hPa
Clouds: Mest skyet
Visibility: 10 km
Cloud details: Mest skyet 244 m
Mest skyet 366 m
2017/10/21 09:50 EKSP 210950Z 15010KT 9999 BKN008 BKN012 12/11 Q1011
EKVD - Vamdrup (aut/Man, Denmark
Distance from station: VNV 92km
Opdateret: 21/10/2017 11:50
Mest skyet
Mest skyet
 Vind retning SØ
Vind: SØ 20 km/h
Temperatur: 13°C
Dugpunkt: 11°C
Fugtighed: 88%
Barometer: 1011 hPa
Clouds: Mest skyet
Visibility: 10 km
Cloud details: Mest skyet 274 m
2017/10/21 09:50 EKVD 210950Z 14011KT 9999 BKN009 13/11 Q1011